Time;durP1;ratioP1;P1;durP2;ratioP2;P2;SDS_P1;SDS_P2;PMS_P1;PMS_P2;Temp;Humidity;BMP_temperature;BMP_pressure;BME280_temperature;BME280_humidity;BME280_pressure;Samples;Min_cycle;Max_cycle;Signal;HPM_P1;HPM_P2
2022/11/05 00:10:52;;;;;;;8.70;1.70;;;7.10;99.90;;;;;;6128281;19;20332;-75
2022/11/05 00:17:30;;;;;;;8.18;2.35;;;6.80;99.90;;;;;;6122258;19;19922;-76
2022/11/05 00:19:35;;;;;;;8.35;1.98;;;;;;;;;;6126570;19;19918;-77
2022/11/05 00:26:15;;;;;;;8.75;2.25;;;6.70;99.90;;;;;;6129682;19;19926;-77
2022/11/05 00:28:19;;;;;;;10.77;3.38;;;6.40;99.90;;;;;;6131198;19;19927;-76
2022/11/05 00:30:25;;;;;;;8.45;3.28;;;6.80;99.90;;;;;;6126905;19;19914;-76
2022/11/05 00:32:29;;;;;;;11.55;3.33;;;6.70;99.90;;;;;;6132267;19;19949;-76
2022/11/05 00:34:32;;;;;;;6.03;3.17;;;6.60;99.90;;;;;;6131293;19;19931;-77
2022/11/05 00:36:36;;;;;;;8.75;3.50;;;6.40;99.90;;;;;;6130086;19;19937;-76
2022/11/05 00:38:43;;;;;;;10.27;4.22;;;6.60;99.90;;;;;;6132300;19;19918;-77
2022/11/05 00:40:47;;;;;;;9.80;4.47;;;6.60;99.90;;;;;;6131888;19;19922;-76
2022/11/05 00:45:06;;;;;;;13.38;5.18;;;6.50;99.90;;;;;;6131202;19;20307;-76
2022/11/05 00:49:33;;;;;;;10.45;5.35;;;;;;;;;;6127652;19;20370;-76
2022/11/05 00:51:37;;;;;;;9.75;5.93;;;6.40;99.90;;;;;;6131838;19;19938;-76
2022/11/05 00:53:44;;;;;;;16.77;7.05;;;6.30;99.90;;;;;;6130699;19;19910;-76
2022/11/05 00:55:48;;;;;;;12.00;6.50;;;6.60;99.90;;;;;;6131518;19;19925;-76
2022/11/05 00:57:50;;;;;;;19.63;8.32;;;6.30;99.90;;;;;;6126702;19;19911;-76
2022/11/05 00:59:54;;;;;;;17.15;8.18;;;6.40;99.90;;;;;;6129462;19;19923;-76
2022/11/05 01:01:58;;;;;;;18.23;8.07;;;6.50;99.90;;;;;;6129679;19;19935;-76
2022/11/05 01:04:02;;;;;;;18.13;9.18;;;6.50;99.90;;;;;;6120736;19;19919;-76
2022/11/05 01:06:10;;;;;;;19.42;9.13;;;6.40;99.90;;;;;;6130673;19;19910;-76
2022/11/05 01:08:15;;;;;;;19.58;8.23;;;6.40;99.90;;;;;;6127991;19;19924;-77
2022/11/05 01:10:22;;;;;;;17.83;6.65;;;6.40;99.90;;;;;;6130002;19;20287;-76
2022/11/05 01:12:26;;;;;;;13.77;7.10;;;6.50;99.90;;;;;;6128644;19;19914;-76
2022/11/05 01:14:30;;;;;;;14.27;5.78;;;6.40;99.90;;;;;;6127941;19;20386;-77
2022/11/05 01:16:34;;;;;;;12.27;5.45;;;6.40;99.90;;;;;;6130807;19;20289;-76
2022/11/05 01:18:39;;;;;;;19.50;8.55;;;6.40;99.90;;;;;;6128814;19;20348;-76
2022/11/05 01:20:43;;;;;;;18.85;9.95;;;;;;;;;;6124719;19;19918;-76
2022/11/05 01:22:47;;;;;;;20.65;11.38;;;6.40;99.90;;;;;;6128955;19;19918;-76
2022/11/05 01:24:51;;;;;;;23.30;10.45;;;;;;;;;;6126963;19;19934;-76
2022/11/05 01:26:58;;;;;;;20.70;10.30;;;6.30;99.90;;;;;;6130786;19;20332;-76
2022/11/05 01:29:02;;;;;;;15.68;8.35;;;6.50;99.90;;;;;;6127288;19;19915;-76
2022/11/05 01:31:05;;;;;;;17.02;7.25;;;6.50;99.90;;;;;;6132439;19;20315;-76
2022/11/05 01:33:10;;;;;;;14.23;4.97;;;;;;;;;;6131218;19;19918;-76
2022/11/05 01:35:17;;;;;;;10.70;3.55;;;6.30;99.90;;;;;;6129220;19;19919;-77
2022/11/05 01:37:21;;;;;;;5.53;2.28;;;6.50;99.90;;;;;;6130132;19;20340;-76
2022/11/05 01:39:25;;;;;;;9.18;3.13;;;6.40;99.90;;;;;;6126868;19;19921;-76
2022/11/05 01:41:30;;;;;;;12.95;2.03;;;6.30;99.90;;;;;;6119224;19;19926;-76
2022/11/05 01:43:50;;;;;;;3.45;1.60;;;6.40;99.90;;;;;;6125821;19;19911;-75
2022/11/05 01:45:58;;;;;;;7.43;1.45;;;6.30;99.90;;;;;;6129742;19;20021;-76
2022/11/05 01:48:08;;;;;;;7.00;1.75;;;6.40;99.90;;;;;;6130270;19;19915;-76
2022/11/05 01:50:35;;;;;;;4.97;1.48;;;6.30;99.90;;;;;;6127583;19;19923;-76
2022/11/05 01:52:39;;;;;;;6.15;1.63;;;;;;;;;;6128692;19;19926;-76
2022/11/05 01:54:44;;;;;;;6.03;1.92;;;;;;;;;;6130056;19;20324;-76
2022/11/05 01:56:51;;;;;;;4.85;1.98;;;6.30;99.90;;;;;;6123074;19;19918;-76
2022/11/05 01:59:02;;;;;;;5.60;2.25;;;6.60;99.90;;;;;;6131186;19;19929;-76
2022/11/05 02:01:06;;;;;;;6.28;1.27;;;6.30;99.90;;;;;;6127166;19;19926;-76
2022/11/05 02:03:11;;;;;;;7.65;1.85;;;6.40;99.90;;;;;;6126286;19;20241;-75
2022/11/05 02:05:16;;;;;;;5.50;1.98;;;6.20;99.90;;;;;;6127917;19;19933;-76
2022/11/05 02:07:20;;;;;;;5.28;1.40;;;6.00;99.90;;;;;;6127603;19;19926;-75
2022/11/05 02:09:29;;;;;;;4.15;1.42;;;6.30;99.90;;;;;;6124924;19;20340;-76
2022/11/05 02:11:33;;;;;;;5.95;1.30;;;;;;;;;;6128316;19;20276;-76
2022/11/05 02:13:37;;;;;;;5.43;1.40;;;6.20;99.90;;;;;;6123802;19;19923;-76
2022/11/05 02:15:57;;;;;;;5.93;1.48;;;6.20;99.90;;;;;;6124656;19;19915;-76
2022/11/05 02:18:12;;;;;;;7.05;1.83;;;6.20;99.90;;;;;;6130247;19;19925;-76
2022/11/05 02:20:37;;;;;;;4.38;1.42;;;6.20;99.90;;;;;;6126595;19;20340;-76
2022/11/05 02:23:06;;;;;;;7.25;2.00;;;6.30;99.90;;;;;;6129612;19;19922;-76
2022/11/05 02:25:28;;;;;;;4.05;1.67;;;6.30;99.90;;;;;;6128126;19;19922;-76
2022/11/05 02:28:00;;;;;;;3.67;1.20;;;5.90;99.90;;;;;;6129386;19;19927;-76
2022/11/05 02:30:26;;;;;;;4.90;1.60;;;6.10;99.90;;;;;;6125078;19;20435;-76
2022/11/05 02:32:53;;;;;;;9.88;2.03;;;6.40;99.90;;;;;;6127292;19;19960;-76
2022/11/05 02:34:58;;;;;;;;;;;6.30;99.90;;;;;;6130678;19;20170;-76
2022/11/05 02:37:09;;;;;;;5.45;2.00;;;6.30;99.90;;;;;;6128765;19;19986;-75
2022/11/05 02:39:22;;;;;;;4.95;1.60;;;6.10;99.90;;;;;;6129090;19;19915;-76
2022/11/05 02:41:35;;;;;;;3.50;1.42;;;5.90;99.90;;;;;;6128966;19;19970;-76
2022/11/05 02:43:56;;;;;;;4.95;1.17;;;6.20;99.90;;;;;;6130684;19;19922;-76
2022/11/05 02:46:13;;;;;;;4.95;1.48;;;6.00;99.90;;;;;;6128442;19;19923;-76
2022/11/05 02:48:25;;;;;;;5.35;1.40;;;6.20;99.90;;;;;;6120015;19;19922;-75
2022/11/05 02:50:35;;;;;;;2.55;1.38;;;6.00;99.90;;;;;;6128999;19;19982;-75
2022/11/05 02:52:45;;;;;;;5.32;1.35;;;6.10;99.90;;;;;;6127867;19;19946;-76
2022/11/05 02:54:58;;;;;;;4.68;1.15;;;5.90;99.90;;;;;;6133050;19;19910;-76
2022/11/05 02:57:04;;;;;;;3.85;1.05;;;5.90;99.90;;;;;;6132270;19;19929;-76
2022/11/05 02:59:08;;;;;;;4.65;1.30;;;5.80;99.90;;;;;;6131328;19;19921;-76
2022/11/05 03:01:14;;;;;;;4.63;1.20;;;6.40;99.90;;;;;;6132768;19;19914;-76
2022/11/05 03:03:28;;;;;;;4.47;1.25;;;5.80;99.90;;;;;;6133320;19;20271;-77
2022/11/05 03:05:42;;;;;;;2.08;1.10;;;6.20;99.90;;;;;;6127077;19;19918;-76
2022/11/05 03:07:54;;;;;;;5.28;1.50;;;6.00;99.90;;;;;;6134119;19;19914;-76
2022/11/05 03:10:27;;;;;;;5.18;1.02;;;5.90;99.90;;;;;;6132931;19;19922;-76
2022/11/05 03:12:40;;;;;;;5.38;1.27;;;5.70;99.90;;;;;;6132494;19;19945;-76
2022/11/05 03:14:53;;;;;;;3.50;0.90;;;5.70;99.90;;;;;;6130523;19;19915;-76
2022/11/05 03:17:05;;;;;;;4.13;0.82;;;5.90;99.90;;;;;;6132483;19;19918;-75
2022/11/05 03:19:18;;;;;;;3.47;0.90;;;5.90;99.90;;;;;;6130522;19;19926;-75
2022/11/05 03:21:28;;;;;;;1.98;1.02;;;6.10;99.90;;;;;;6133278;19;19930;-76
2022/11/05 03:23:40;;;;;;;2.63;1.13;;;5.80;99.90;;;;;;6132457;19;19953;-76
2022/11/05 03:25:50;;;;;;;5.30;1.10;;;5.90;99.90;;;;;;6132201;19;19914;-75
2022/11/05 03:27:59;;;;;;;3.95;1.10;;;5.30;99.90;;;;;;6133822;19;19978;-76
2022/11/05 03:30:05;;;;;;;1.90;1.08;;;5.80;99.90;;;;;;6126513;19;19922;-76
2022/11/05 03:32:13;;;;;;;3.17;1.02;;;5.70;99.90;;;;;;6131690;19;20605;-75
2022/11/05 03:34:21;;;;;;;4.07;1.45;;;5.80;99.90;;;;;;6132457;19;19918;-75
2022/11/05 03:36:28;;;;;;;4.38;1.38;;;5.80;99.90;;;;;;6131845;19;19918;-76
2022/11/05 03:38:36;;;;;;;6.00;1.27;;;5.80;99.90;;;;;;6131924;19;20271;-76
2022/11/05 03:40:43;;;;;;;3.53;1.10;;;5.70;99.90;;;;;;6131777;19;19949;-75
2022/11/05 03:42:52;;;;;;;5.45;0.90;;;5.70;99.90;;;;;;6132105;19;19918;-75
2022/11/05 03:44:59;;;;;;;3.00;1.20;;;5.70;99.90;;;;;;6133557;19;19918;-75
2022/11/05 03:47:06;;;;;;;4.00;1.02;;;5.70;99.90;;;;;;6124433;19;20264;-75
2022/11/05 03:49:17;;;;;;;4.15;1.10;;;5.80;99.90;;;;;;6128919;19;20247;-76
2022/11/05 03:51:30;;;;;;;3.88;1.08;;;5.70;99.90;;;;;;6131904;19;19919;-75
2022/11/05 03:53:42;;;;;;;3.30;1.00;;;5.50;99.90;;;;;;6129181;19;19923;-76
2022/11/05 03:55:53;;;;;;;5.40;1.10;;;5.80;99.90;;;;;;6128184;19;19914;-75
2022/11/05 03:57:59;;;;;;;5.72;1.35;;;5.70;99.90;;;;;;6133295;19;19922;-76
2022/11/05 04:00:03;;;;;;;1.77;0.88;;;;;;;;;;6132306;19;19934;-75
2022/11/05 04:02:07;;;;;;;4.60;1.20;;;5.80;99.90;;;;;;6131390;19;19927;-75
2022/11/05 04:04:13;;;;;;;6.05;1.15;;;5.50;99.90;;;;;;6122644;19;19915;-75
2022/11/05 04:15:23;;;;;;;3.40;1.10;;;5.90;99.90;;;;;;6129971;19;19921;-75
2022/11/05 04:17:24;;;;;;;4.75;1.08;;;4.80;99.90;;;;;;6130068;19;19970;-75
2022/11/05 04:24:09;;;;;;;2.50;0.77;;;5.50;99.90;;;;;;6127811;19;19974;-75
2022/11/05 04:26:13;;;;;;;5.72;1.20;;;5.50;99.90;;;;;;6131767;19;20350;-75
2022/11/05 04:28:17;;;;;;;3.25;1.33;;;5.60;99.90;;;;;;6129749;19;19926;-75
2022/11/05 04:30:20;;;;;;;2.90;1.17;;;5.50;99.90;;;;;;6128779;19;19945;-75
2022/11/05 04:32:21;;;;;;;3.78;1.30;;;5.60;99.90;;;;;;6131188;19;19919;-75
2022/11/05 04:34:25;;;;;;;2.58;1.20;;;;;;;;;;6129368;19;19911;-75
2022/11/05 04:36:32;;;;;;;6.13;1.35;;;5.60;99.90;;;;;;6129343;19;19919;-75
2022/11/05 04:38:36;;;;;;;2.97;1.02;;;;;;;;;;6127074;19;20045;-75
2022/11/05 04:40:41;;;;;;;2.60;1.20;;;5.30;99.90;;;;;;6128298;19;19922;-75
2022/11/05 04:42:45;;;;;;;3.25;1.40;;;5.80;99.90;;;;;;6121302;19;19922;-75
2022/11/05 04:44:48;;;;;;;6.53;1.30;;;5.70;99.90;;;;;;6131089;19;19918;-75
2022/11/05 04:46:52;;;;;;;4.30;1.33;;;5.50;99.90;;;;;;6130255;19;19926;-75
2022/11/05 04:48:56;;;;;;;4.32;1.75;;;5.60;99.90;;;;;;6131906;19;19926;-75
2022/11/05 04:51:00;;;;;;;4.88;1.10;;;;;;;;;;6129539;19;20034;-75
2022/11/05 04:53:07;;;;;;;4.40;1.58;;;5.60;99.90;;;;;;6132789;19;20303;-75
2022/11/05 04:55:11;;;;;;;4.95;1.50;;;5.50;99.90;;;;;;6128705;19;19921;-75
2022/11/05 04:57:15;;;;;;;3.22;1.23;;;5.70;99.90;;;;;;6129009;19;19942;-75
2022/11/05 04:59:19;;;;;;;3.42;1.48;;;;;;;;;;6121453;19;19918;-75
2022/11/05 05:01:25;;;;;;;2.75;1.50;;;5.50;99.90;;;;;;6128974;19;19922;-75
2022/11/05 05:03:29;;;;;;;2.40;1.50;;;5.70;99.90;;;;;;6130544;19;19914;-75
2022/11/05 05:05:33;;;;;;;4.00;1.55;;;;;;;;;;6127151;19;20633;-75
2022/11/05 05:07:39;;;;;;;3.45;1.35;;;;;;;;;;6126060;19;19919;-75
2022/11/05 05:09:46;;;;;;;1.92;1.40;;;5.50;99.90;;;;;;6128826;19;19914;-75
2022/11/05 05:11:50;;;;;;;3.88;1.40;;;5.60;99.90;;;;;;6129229;19;19949;-75
2022/11/05 05:13:54;;;;;;;5.18;1.38;;;5.50;99.90;;;;;;6128305;19;19944;-75
2022/11/05 05:15:58;;;;;;;3.90;1.23;;;5.70;99.90;;;;;;6120595;19;19918;-75
2022/11/05 05:18:01;;;;;;;4.07;1.30;;;5.50;99.90;;;;;;6129010;19;19944;-75
2022/11/05 05:22:22;;;;;;;4.85;1.30;;;5.50;99.90;;;;;;6129276;19;19931;-75
2022/11/05 05:24:26;;;;;;;4.57;1.50;;;5.90;99.90;;;;;;6127532;19;19926;-75
2022/11/05 05:26:33;;;;;;;4.05;1.23;;;5.40;99.90;;;;;;6129446;19;19926;-75
2022/11/05 05:28:37;;;;;;;5.20;1.80;;;5.00;99.90;;;;;;6127992;19;19922;-75
2022/11/05 05:30:40;;;;;;;6.25;1.80;;;3.90;99.90;;;;;;6127751;19;20228;-75
2022/11/05 05:32:44;;;;;;;3.67;1.30;;;5.70;99.90;;;;;;6122859;19;20579;-75
2022/11/05 05:34:48;;;;;;;2.90;1.60;;;6.00;99.90;;;;;;6127846;19;19926;-75
2022/11/05 05:36:52;;;;;;;5.75;1.75;;;5.50;99.90;;;;;;6129251;19;19922;-76
2022/11/05 05:38:56;;;;;;;4.20;1.67;;;5.70;99.90;;;;;;6126307;19;19946;-75
2022/11/05 05:41:01;;;;;;;3.65;1.85;;;5.40;99.90;;;;;;6130391;19;19919;-75
2022/11/05 05:43:07;;;;;;;5.68;1.60;;;5.60;99.90;;;;;;6127171;19;20411;-75
2022/11/05 05:45:12;;;;;;;6.32;1.65;;;5.60;99.90;;;;;;6127371;19;19918;-75
2022/11/05 05:47:16;;;;;;;12.30;2.05;;;5.40;99.90;;;;;;6126587;19;19937;-76
2022/11/05 05:49:20;;;;;;;3.70;1.48;;;5.90;99.90;;;;;;6120334;19;19922;-75
2022/11/05 05:51:24;;;;;;;4.03;1.60;;;5.70;99.90;;;;;;6128241;19;20260;-75
2022/11/05 05:53:28;;;;;;;4.22;1.80;;;;;;;;;;6128562;19;20292;-75
2022/11/05 05:55:32;;;;;;;4.88;2.13;;;5.80;99.90;;;;;;6126606;19;19919;-75
2022/11/05 05:57:36;;;;;;;8.38;2.10;;;5.50;99.90;;;;;;6128978;19;19925;-75
2022/11/05 05:59:43;;;;;;;7.75;1.65;;;5.60;99.90;;;;;;6127213;19;19927;-75
2022/11/05 06:01:47;;;;;;;3.85;1.92;;;5.50;99.90;;;;;;6125979;19;19923;-75
2022/11/05 06:03:51;;;;;;;4.13;1.73;;;5.60;99.90;;;;;;6127349;19;20365;-75
2022/11/05 06:05:55;;;;;;;4.85;1.77;;;5.80;99.90;;;;;;6127350;19;19914;-75
2022/11/05 06:07:59;;;;;;;7.63;2.50;;;5.60;99.90;;;;;;6119385;19;20312;-75
2022/11/05 06:10:03;;;;;;;5.78;1.90;;;5.60;99.90;;;;;;6126125;19;19922;-76
2022/11/05 06:12:08;;;;;;;5.85;1.75;;;5.60;99.90;;;;;;6125906;19;19921;-75
2022/11/05 06:14:12;;;;;;;5.35;2.10;;;5.60;99.90;;;;;;6126329;19;19922;-75
2022/11/05 06:16:20;;;;;;;3.45;1.52;;;5.30;99.90;;;;;;6125729;19;19919;-75
2022/11/05 06:18:24;;;;;;;3.60;1.60;;;;;;;;;;6128196;19;20273;-75
2022/11/05 06:20:28;;;;;;;4.95;1.52;;;5.30;99.90;;;;;;6127547;19;19915;-75
2022/11/05 06:22:32;;;;;;;4.72;1.70;;;;;;;;;;6129326;19;19953;-75
2022/11/05 06:24:36;;;;;;;5.68;2.15;;;5.80;99.90;;;;;;6121458;19;19918;-75
2022/11/05 06:26:42;;;;;;;3.22;1.63;;;5.60;99.90;;;;;;6124845;19;19919;-75
2022/11/05 06:28:46;;;;;;;3.05;1.55;;;5.50;99.90;;;;;;6131580;19;19975;-75
2022/11/05 06:30:53;;;;;;;5.30;2.42;;;5.50;99.90;;;;;;6131079;19;19914;-75
2022/11/05 06:33:04;;;;;;;3.90;1.98;;;5.30;99.90;;;;;;6131783;19;20267;-75
2022/11/05 06:35:08;;;;;;;2.95;1.95;;;;;;;;;;6133335;19;19922;-75
2022/11/05 06:37:12;;;;;;;4.30;1.60;;;5.70;99.90;;;;;;6133589;19;20441;-75
2022/11/05 06:39:16;;;;;;;7.88;2.08;;;;;;;;;;6132083;19;19922;-75
2022/11/05 06:41:20;;;;;;;5.97;2.05;;;;;;;;;;6133626;19;19930;-75
2022/11/05 06:43:24;;;;;;;5.53;2.03;;;5.80;99.90;;;;;;6128767;19;19915;-75
2022/11/05 06:45:28;;;;;;;6.50;2.60;;;;;;;;;;6133312;19;19939;-75
2022/11/05 06:47:32;;;;;;;5.32;1.85;;;5.60;99.90;;;;;;6131743;19;19986;-75
2022/11/05 06:49:38;;;;;;;3.55;1.80;;;5.30;99.90;;;;;;6132195;19;20375;-75
2022/11/05 06:51:42;;;;;;;5.45;1.98;;;5.70;99.90;;;;;;6131557;19;19919;-75
2022/11/05 06:53:46;;;;;;;6.15;2.05;;;5.50;99.90;;;;;;6131432;19;19915;-75
2022/11/05 06:55:50;;;;;;;5.03;2.97;;;;;;;;;;6132669;19;19918;-75
2022/11/05 06:57:55;;;;;;;2.85;1.98;;;5.50;99.90;;;;;;6128636;19;19922;-75
2022/11/05 06:59:59;;;;;;;4.57;1.92;;;;;;;;;;6128998;19;20272;-75
2022/11/05 07:02:03;;;;;;;4.80;1.75;;;5.60;99.90;;;;;;6132751;19;19942;-75
2022/11/05 07:04:07;;;;;;;3.95;1.88;;;5.50;99.90;;;;;;6132926;19;19942;-75
2022/11/05 07:06:13;;;;;;;4.75;2.08;;;5.50;99.90;;;;;;6129853;19;19914;-76
2022/11/05 07:08:18;;;;;;;6.13;1.95;;;5.60;99.90;;;;;;6130096;19;19914;-75
2022/11/05 07:10:22;;;;;;;2.10;1.75;;;5.50;99.90;;;;;;6133050;19;20296;-75
2022/11/05 07:12:26;;;;;;;4.38;1.65;;;5.40;99.90;;;;;;6130161;19;20301;-75
2022/11/05 07:14:30;;;;;;;4.80;1.83;;;5.60;99.90;;;;;;6124570;19;19945;-75
2022/11/05 07:16:33;;;;;;;4.22;1.77;;;5.60;99.90;;;;;;6133137;19;19922;-75
2022/11/05 07:18:37;;;;;;;5.57;2.00;;;5.50;99.90;;;;;;6131626;19;19914;-75
2022/11/05 07:20:41;;;;;;;2.85;1.80;;;5.40;99.90;;;;;;6131799;19;19926;-75
2022/11/05 07:22:48;;;;;;;4.32;1.70;;;5.30;99.90;;;;;;6131453;19;20138;-75
2022/11/05 07:24:52;;;;;;;5.47;2.03;;;;;;;;;;6133981;19;19914;-75
2022/11/05 07:26:56;;;;;;;3.33;1.88;;;5.30;99.90;;;;;;6130869;19;20340;-75
2022/11/05 07:29:00;;;;;;;5.72;2.17;;;;;;;;;;6129957;19;19919;-75
2022/11/05 07:31:04;;;;;;;5.47;2.75;;;5.40;99.90;;;;;;6126328;19;19914;-75
2022/11/05 07:33:07;;;;;;;7.35;2.63;;;5.80;99.90;;;;;;6132198;19;19922;-76
2022/11/05 07:35:12;;;;;;;6.88;2.30;;;5.70;99.90;;;;;;6132029;19;20557;-75
2022/11/05 07:37:16;;;;;;;3.85;2.70;;;5.40;99.90;;;;;;6131869;19;19950;-75
2022/11/05 07:39:23;;;;;;;3.35;1.67;;;5.80;99.90;;;;;;6129442;19;20010;-75
2022/11/05 07:41:27;;;;;;;5.95;2.08;;;5.50;99.90;;;;;;6132121;19;20251;-75
2022/11/05 07:43:31;;;;;;;3.10;1.88;;;5.60;99.90;;;;;;6134170;19;19923;-75
2022/11/05 07:45:35;;;;;;;2.22;1.85;;;5.90;99.90;;;;;;6133346;19;20356;-75
2022/11/05 07:47:39;;;;;;;4.15;2.38;;;;;;;;;;6129529;19;19926;-75
2022/11/05 07:49:43;;;;;;;4.10;2.00;;;5.70;99.90;;;;;;6130999;19;19919;-77
2022/11/05 07:51:47;;;;;;;4.03;1.98;;;5.90;99.90;;;;;;6129489;19;19935;-76
2022/11/05 07:53:51;;;;;;;4.45;2.22;;;;;;;;;;6129471;19;19945;-74
2022/11/05 07:55:58;;;;;;;5.43;2.08;;;6.00;99.90;;;;;;6125842;19;20450;-74
2022/11/05 07:58:03;;;;;;;3.97;2.10;;;;;;;;;;6131774;19;19918;-76
2022/11/05 08:00:08;;;;;;;6.47;2.20;;;5.60;99.90;;;;;;6122951;19;19922;-76
2022/11/05 08:02:12;;;;;;;4.05;2.20;;;5.60;99.90;;;;;;6130467;19;19914;-77
2022/11/05 08:04:16;;;;;;;4.07;2.10;;;;;;;;;;6129407;19;19919;-75
2022/11/05 08:06:20;;;;;;;5.65;2.30;;;5.90;99.90;;;;;;6127321;19;19937;-75
2022/11/05 08:08:24;;;;;;;5.55;2.20;;;;;;;;;;6129274;19;19917;-76
2022/11/05 08:10:28;;;;;;;4.65;2.47;;;5.90;99.90;;;;;;6129806;19;19923;-76
2022/11/05 08:12:35;;;;;;;4.95;2.15;;;6.20;99.90;;;;;;6130671;19;19919;-75
2022/11/05 08:14:39;;;;;;;5.43;2.53;;;;;;;;;;6132422;19;20348;-75
2022/11/05 08:16:43;;;;;;;4.85;2.10;;;6.40;99.90;;;;;;6129379;19;19919;-75
2022/11/05 08:18:47;;;;;;;6.25;1.70;;;5.90;99.90;;;;;;6130895;19;20343;-76
2022/11/05 08:20:51;;;;;;;6.60;2.83;;;6.30;99.90;;;;;;6126843;19;19945;-76
2022/11/05 08:22:55;;;;;;;4.00;1.90;;;5.90;99.90;;;;;;6130917;19;20369;-75
2022/11/05 08:24:59;;;;;;;6.20;1.95;;;6.50;99.90;;;;;;6132178;19;20447;-76
2022/11/05 08:27:03;;;;;;;2.63;1.90;;;6.20;99.90;;;;;;6129664;19;19918;-75
2022/11/05 08:29:10;;;;;;;9.75;2.20;;;6.30;99.90;;;;;;6128483;19;19926;-76
2022/11/05 08:31:14;;;;;;;4.82;2.00;;;5.80;99.90;;;;;;6131717;19;19950;-75
2022/11/05 08:33:19;;;;;;;5.35;2.20;;;6.60;99.90;;;;;;6130651;19;19919;-75
2022/11/05 08:35:23;;;;;;;3.72;1.77;;;6.70;99.90;;;;;;6128255;19;19949;-75
2022/11/05 08:37:27;;;;;;;9.38;2.10;;;6.20;99.90;;;;;;6130166;19;19922;-75
2022/11/05 08:39:31;;;;;;;8.20;1.88;;;6.30;99.90;;;;;;6130288;19;19922;-76
2022/11/05 08:41:35;;;;;;;5.03;2.13;;;7.00;99.90;;;;;;6131266;19;19937;-75
2022/11/05 08:43:38;;;;;;;3.55;2.08;;;6.50;99.90;;;;;;6129065;19;19914;-76
2022/11/05 08:45:45;;;;;;;3.30;2.40;;;6.50;99.90;;;;;;6128815;19;20320;-75
2022/11/05 08:47:49;;;;;;;4.25;2.25;;;7.10;99.90;;;;;;6129827;19;19922;-75
2022/11/05 08:49:53;;;;;;;2.92;2.03;;;7.10;99.90;;;;;;6128161;19;19918;-75
2022/11/05 08:51:57;;;;;;;7.25;2.33;;;7.60;99.90;;;;;;6128718;19;20305;-75
2022/11/05 08:54:01;;;;;;;5.13;2.15;;;7.40;99.90;;;;;;6129872;19;19914;-76
2022/11/05 08:56:05;;;;;;;2.60;1.70;;;7.10;99.90;;;;;;6129187;19;20341;-76
2022/11/05 08:58:13;;;;;;;3.58;1.65;;;6.90;99.90;;;;;;6129776;19;20373;-76
2022/11/05 09:00:18;;;;;;;5.82;2.67;;;7.40;99.90;;;;;;6126391;19;19981;-76
2022/11/05 09:02:24;;;;;;;5.55;1.85;;;7.10;99.90;;;;;;6130282;19;20520;-76
2022/11/05 09:04:28;;;;;;;4.05;1.90;;;7.30;99.90;;;;;;6122535;19;19918;-76
2022/11/05 09:06:32;;;;;;;3.78;2.00;;;7.80;99.90;;;;;;6130253;19;19922;-76
2022/11/05 09:08:36;;;;;;;4.55;1.58;;;;;;;;;;6123457;19;19923;-76
2022/11/05 09:10:41;;;;;;;6.30;1.80;;;8.00;99.90;;;;;;6129892;19;19946;-76
2022/11/05 09:12:45;;;;;;;4.63;1.67;;;7.50;99.90;;;;;;6127158;19;19911;-76
2022/11/05 09:14:49;;;;;;;6.05;2.10;;;8.00;99.90;;;;;;6128467;19;19914;-76
2022/11/05 09:16:53;;;;;;;2.35;1.40;;;7.80;99.90;;;;;;6128780;19;19942;-76
2022/11/05 09:19:01;;;;;;;11.63;2.38;;;8.30;99.90;;;;;;6130151;19;19915;-76
2022/11/05 09:21:05;;;;;;;4.45;2.00;;;7.80;99.90;;;;;;6127542;19;19919;-76
2022/11/05 09:23:09;;;;;;;4.70;1.70;;;;;;;;;;6129768;19;19915;-76
2022/11/05 09:25:14;;;;;;;4.95;1.95;;;8.10;99.90;;;;;;6127824;19;19925;-76
2022/11/05 09:27:17;;;;;;;4.85;1.70;;;8.10;99.90;;;;;;6126783;19;20350;-76
2022/11/05 09:29:22;;;;;;;9.95;1.88;;;7.80;99.90;;;;;;6129780;19;19914;-76
2022/11/05 09:31:25;;;;;;;3.72;1.85;;;8.40;99.90;;;;;;6124851;19;19922;-76
2022/11/05 09:33:29;;;;;;;3.65;1.92;;;8.50;99.90;;;;;;6129389;19;19918;-76
2022/11/05 09:35:36;;;;;;;2.17;1.30;;;8.50;99.90;;;;;;6126883;19;19922;-75
2022/11/05 09:37:40;;;;;;;5.60;1.95;;;8.00;99.90;;;;;;6127581;19;19937;-75
2022/11/05 09:39:43;;;;;;;4.63;1.70;;;8.80;99.90;;;;;;6125503;19;19922;-76
2022/11/05 09:41:49;;;;;;;3.28;1.70;;;8.60;99.90;;;;;;6127845;19;19942;-79
2022/11/05 09:43:56;;;;;;;4.55;1.83;;;9.00;99.90;;;;;;6127156;19;19954;-78
2022/11/05 09:46:04;;;;;;;3.60;2.22;;;8.70;99.90;;;;;;6127451;19;19926;-78
2022/11/05 09:48:14;;;;;;;2.67;1.95;;;8.90;99.90;;;;;;6125687;19;19939;-77
2022/11/05 09:50:21;;;;;;;4.18;1.90;;;8.60;99.90;;;;;;6128033;19;19950;-77
2022/11/05 09:52:30;;;;;;;3.88;2.00;;;9.00;99.90;;;;;;6123056;19;20407;-77
2022/11/05 09:54:34;;;;;;;3.20;2.20;;;8.70;99.90;;;;;;6128945;19;20382;-77
2022/11/05 09:56:42;;;;;;;6.97;2.00;;;9.20;99.90;;;;;;6124742;19;19941;-77
2022/11/05 09:58:50;;;;;;;4.35;1.95;;;8.60;99.90;;;;;;6105284;19;19923;-78
2022/11/05 10:00:54;;;;;;;3.83;1.85;;;;;;;;;;6119217;19;19923;-78
2022/11/05 10:03:01;;;;;;;5.18;1.70;;;9.50;99.90;;;;;;6119112;19;20367;-78
2022/11/05 10:05:08;;;;;;;3.83;1.88;;;8.70;99.90;;;;;;6123862;19;19941;-77
2022/11/05 10:07:17;;;;;;;5.18;1.70;;;9.60;99.90;;;;;;6122856;19;19932;-76
2022/11/05 10:09:28;;;;;;;4.78;1.50;;;9.30;99.90;;;;;;6123838;19;19915;-76
2022/11/05 10:11:37;;;;;;;2.92;1.80;;;9.30;99.90;;;;;;6128055;19;19922;-76
2022/11/05 10:13:42;;;;;;;;;;;9.30;99.90;;;;;;6127881;19;19940;-76
2022/11/05 10:15:55;;;;;;;5.70;1.98;;;9.30;99.90;;;;;;6126757;19;19915;-76
2022/11/05 10:18:04;;;;;;;3.58;1.50;;;9.10;99.90;;;;;;6127325;19;19925;-75
2022/11/05 10:20:16;;;;;;;1.83;1.55;;;9.50;99.90;;;;;;6125331;19;19949;-77
2022/11/05 10:22:21;;;;;;;2.38;1.52;;;10.20;99.90;;;;;;6125790;19;19992;-76
2022/11/05 10:24:29;;;;;;;3.45;1.52;;;10.00;99.90;;;;;;6126861;19;19918;-75
2022/11/05 10:26:33;;;;;;;3.03;1.42;;;10.10;99.90;;;;;;6127100;19;19937;-78
2022/11/05 10:28:38;;;;;;;3.80;1.50;;;9.90;99.90;;;;;;6128162;19;19918;-78
2022/11/05 10:30:43;;;;;;;3.88;1.60;;;9.40;99.90;;;;;;6126424;19;20348;-76
2022/11/05 10:32:48;;;;;;;2.50;1.65;;;10.30;99.90;;;;;;6123644;19;19922;-76
2022/11/05 10:34:53;;;;;;;3.78;1.70;;;10.40;99.90;;;;;;6123325;19;19915;-76
2022/11/05 10:36:57;;;;;;;2.78;1.83;;;10.10;99.90;;;;;;6121599;19;19914;-75
2022/11/05 10:39:07;;;;;;;5.30;2.00;;;10.00;99.90;;;;;;6121601;19;19925;-75
2022/11/05 10:41:29;;;;;;;4.50;1.60;;;10.10;99.90;;;;;;6123909;19;19922;-74
2022/11/05 10:43:37;;;;;;;3.08;1.38;;;10.20;99.90;;;;;;6125077;19;19915;-74
2022/11/05 10:45:53;;;;;;;4.07;1.35;;;10.30;99.90;;;;;;6123633;19;19918;-74
2022/11/05 10:48:12;;;;;;;4.07;1.98;;;10.10;99.90;;;;;;6117238;19;19914;-76
2022/11/05 10:50:20;;;;;;;4.22;1.52;;;10.50;99.90;;;;;;6124009;19;19961;-74
2022/11/05 10:52:28;;;;;;;4.22;1.75;;;10.60;99.90;;;;;;6116488;19;19922;-78
2022/11/05 10:54:36;;;;;;;3.53;1.38;;;10.60;99.90;;;;;;6120584;19;19946;-74
2022/11/05 10:56:43;;;;;;;4.80;1.58;;;10.70;99.90;;;;;;6116170;19;19922;-75
2022/11/05 10:58:59;;;;;;;4.95;1.58;;;10.80;99.90;;;;;;6122122;19;19978;-75
2022/11/05 11:01:07;;;;;;;2.05;1.30;;;12.60;99.90;;;;;;6125443;19;19994;-74
2022/11/05 11:03:34;;;;;;;4.15;1.50;;;10.70;99.90;;;;;;6126344;19;19949;-75
2022/11/05 11:05:41;;;;;;;2.05;1.10;;;10.60;99.90;;;;;;6124186;19;19956;-75
2022/11/05 11:07:45;;;;;;;4.20;1.90;;;;;;;;;;6124185;19;19941;-75
2022/11/05 11:09:51;;;;;;;4.72;1.70;;;11.10;99.90;;;;;;6122815;19;19914;-75
2022/11/05 11:12:03;;;;;;;3.40;1.42;;;11.40;99.90;;;;;;6125316;19;19922;-75
2022/11/05 11:14:22;;;;;;;4.97;1.70;;;11.00;99.90;;;;;;6128156;19;19914;-76
2022/11/05 11:16:27;;;;;;;4.63;1.20;;;11.80;99.90;;;;;;6129146;19;19918;-76
2022/11/05 11:18:38;;;;;;;2.50;1.30;;;11.70;99.90;;;;;;6130643;19;19918;-77
2022/11/05 11:20:47;;;;;;;2.47;1.73;;;11.60;99.90;;;;;;6130572;19;19922;-77
2022/11/05 11:23:13;;;;;;;2.83;1.13;;;11.30;99.90;;;;;;6129112;19;19935;-73
2022/11/05 11:25:25;;;;;;;3.70;1.05;;;11.60;99.90;;;;;;6128449;19;20265;-76
2022/11/05 11:27:36;;;;;;;4.13;1.20;;;11.90;99.90;;;;;;6129196;19;19911;-77
2022/11/05 11:29:43;;;;;;;2.67;1.33;;;11.20;99.90;;;;;;6130679;19;19942;-76
2022/11/05 11:31:47;;;;;;;4.05;1.30;;;11.30;99.90;;;;;;6128339;19;19938;-76
2022/11/05 11:33:57;;;;;;;2.45;1.10;;;12.00;99.90;;;;;;6129084;19;20278;-76
2022/11/05 11:36:02;;;;;;;2.88;0.98;;;11.90;99.90;;;;;;6129800;19;20272;-74
2022/11/05 11:38:08;;;;;;;2.65;0.95;;;12.00;99.90;;;;;;6128772;19;19925;-76
2022/11/05 11:40:17;;;;;;;2.47;1.17;;;12.10;99.90;;;;;;6131588;19;19914;-76
2022/11/05 11:42:27;;;;;;;6.20;1.30;;;11.80;99.90;;;;;;6126982;19;19915;-76
2022/11/05 11:44:38;;;;;;;2.53;0.88;;;11.70;99.90;;;;;;6129672;19;19918;-75
2022/11/05 11:46:43;;;;;;;2.65;1.10;;;11.80;99.90;;;;;;6130271;19;20352;-75
2022/11/05 11:48:48;;;;;;;2.92;1.05;;;12.00;99.90;;;;;;6130091;19;19942;-75
2022/11/05 11:50:53;;;;;;;2.80;1.00;;;12.10;99.90;;;;;;6128894;19;19914;-76
2022/11/05 11:52:57;;;;;;;3.83;1.13;;;11.80;99.90;;;;;;6129912;19;19978;-75
2022/11/05 11:55:21;;;;;;;4.55;1.67;;;11.80;99.90;;;;;;6130699;19;19937;-75